Time;durP1;ratioP1;P1;durP2;ratioP2;P2;SDS_P1;SDS_P2;PMS_P1;PMS_P2;Temp;Humidity;BMP_temperature;BMP_pressure;BME280_temperature;BME280_humidity;BME280_pressure;Samples;Min_cycle;Max_cycle;Signal;HPM_P1;HPM_P2
2023/08/07 00:01:39;;;;;;;8.80;2.80;;;;;;;15.05;100.00;101267.81;5243757;28;20029;-78
2023/08/07 00:04:11;;;;;;;8.82;2.80;;;;;;;15.04;100.00;101271.44;5226604;28;20035;-78
2023/08/07 00:06:42;;;;;;;10.45;2.95;;;;;;;14.96;100.00;101260.78;5240962;28;20378;-76
2023/08/07 00:09:13;;;;;;;9.48;2.80;;;;;;;15.04;100.00;101263.53;5247370;28;20025;-78
2023/08/07 00:11:44;;;;;;;11.85;3.63;;;;;;;15.02;100.00;101257.53;5244162;28;20159;-82
2023/08/07 00:14:16;;;;;;;9.80;3.03;;;;;;;15.02;100.00;101270.75;5247947;28;20034;-79
2023/08/07 00:16:47;;;;;;;10.32;2.75;;;;;;;15.03;100.00;101264.47;5247818;28;20063;-80
2023/08/07 00:19:18;;;;;;;11.15;2.80;;;;;;;15.08;100.00;101272.78;5241958;28;20399;-78
2023/08/07 00:21:49;;;;;;;9.70;2.78;;;;;;;15.06;100.00;101280.03;5244647;28;20032;-78
2023/08/07 00:24:21;;;;;;;11.90;3.13;;;;;;;15.14;100.00;101278.44;5248340;28;20032;-78
2023/08/07 00:26:52;;;;;;;8.35;2.45;;;;;;;15.19;100.00;101281.47;5255076;28;20024;-76
2023/08/07 00:29:23;;;;;;;10.82;2.80;;;;;;;15.18;100.00;101295.63;5260001;28;20021;-74
2023/08/07 00:31:55;;;;;;;7.63;2.70;;;;;;;15.14;100.00;101303.03;5263597;28;20027;-76
2023/08/07 00:34:26;;;;;;;9.38;3.00;;;;;;;15.08;100.00;101293.91;5252527;28;20689;-76
2023/08/07 00:36:57;;;;;;;10.80;3.28;;;;;;;15.06;100.00;101295.84;5242842;28;20044;-75
2023/08/07 00:39:32;;;;;;;6.30;2.20;;;;;;;15.08;100.00;101279.88;5243916;28;20049;-75
2023/08/07 00:42:04;;;;;;;6.28;2.10;;;;;;;14.96;100.00;101275.78;5243654;28;20037;-75
2023/08/07 00:44:35;;;;;;;7.88;2.38;;;;;;;14.94;100.00;101280.38;5246408;28;20505;-75
2023/08/07 00:47:07;;;;;;;7.38;2.20;;;;;;;14.93;100.00;101287.47;5244808;28;20022;-75
2023/08/07 00:49:39;;;;;;;10.80;2.95;;;;;;;14.93;100.00;101284.00;5243926;28;20028;-76
2023/08/07 00:52:10;;;;;;;10.10;3.13;;;;;;;14.92;100.00;101301.63;5243894;28;20110;-75
2023/08/07 00:54:42;;;;;;;5.50;2.35;;;;;;;14.94;100.00;101306.78;5243836;28;20033;-75
2023/08/07 00:57:17;;;;;;;7.28;2.35;;;;;;;14.87;100.00;101303.88;5243436;28;20036;-75
2023/08/07 00:59:48;;;;;;;8.75;2.60;;;;;;;14.86;100.00;101294.31;5247954;28;20107;-74
2023/08/07 01:02:20;;;;;;;7.63;2.85;;;;;;;14.83;100.00;101294.59;5247579;28;20031;-74
2023/08/07 01:04:51;;;;;;;9.65;2.58;;;;;;;14.83;100.00;101287.50;5237861;28;20025;-74
2023/08/07 01:07:22;;;;;;;7.22;2.55;;;;;;;14.82;100.00;101283.22;5258740;28;20032;-74
2023/08/07 01:09:56;;;;;;;8.48;2.90;;;;;;;14.82;100.00;101279.75;5261855;28;20021;-74
2023/08/07 01:12:30;;;;;;;;;;;;;;;15.53;100.00;101285.13;5262395;28;20117;-74
2023/08/07 01:15:30;;;;;;;7.40;2.90;;;;;;;15.19;100.00;101287.59;5258173;28;19916;-73
2023/08/07 01:18:04;;;;;;;7.43;2.45;;;;;;;14.86;100.00;101290.84;5257165;28;20044;-73
2023/08/07 01:20:35;;;;;;;7.15;2.88;;;;;;;14.87;100.00;101290.69;5252533;28;20033;-73
2023/08/07 01:23:06;;;;;;;9.90;3.33;;;;;;;14.91;100.00;101296.50;5258805;28;20503;-73
2023/08/07 01:25:38;;;;;;;8.30;2.40;;;;;;;14.96;100.00;101295.06;5258672;28;20029;-74
2023/08/07 01:28:23;;;;;;;7.32;2.45;;;;;;;15.10;100.00;101301.66;5262482;28;20741;-73
2023/08/07 01:30:59;;;;;;;8.70;2.67;;;;;;;14.93;100.00;101298.03;5255747;28;20029;-74
2023/08/07 01:33:47;;;;;;;10.13;2.70;;;;;;;15.23;100.00;101307.44;5259844;28;20271;-74
2023/08/07 01:36:20;;;;;;;10.40;3.00;;;;;;;15.02;100.00;101317.41;5260801;28;20038;-73
2023/08/07 01:38:54;;;;;;;6.57;2.35;;;;;;;14.97;100.00;101303.84;5261172;28;20025;-74
2023/08/07 01:41:25;;;;;;;10.80;3.28;;;;;;;14.91;100.00;101315.78;5264160;28;20029;-74
2023/08/07 01:43:57;;;;;;;11.18;2.97;;;;;;;14.88;100.00;101316.09;5263127;28;20024;-73
2023/08/07 01:46:28;;;;;;;7.22;2.60;;;;;;;14.88;100.00;101312.63;5244679;28;20248;-74
2023/08/07 01:49:00;;;;;;;9.02;2.72;;;;;;;14.84;100.00;101312.91;5265379;28;20104;-74
2023/08/07 01:51:31;;;;;;;9.45;2.78;;;;;;;14.82;100.00;101317.50;5263531;28;20032;-73
2023/08/07 01:54:02;;;;;;;10.70;2.90;;;;;;;14.80;100.00;101324.72;5263855;28;20032;-74
2023/08/07 01:56:33;;;;;;;8.65;2.60;;;;;;;14.83;100.00;101319.16;5266165;28;20032;-73
2023/08/07 01:59:05;;;;;;;9.00;2.75;;;;;;;14.80;100.00;101323.91;5263793;28;20033;-74
2023/08/07 02:01:36;;;;;;;8.73;2.47;;;;;;;14.75;100.00;101320.88;5261290;28;20494;-74
2023/08/07 02:04:07;;;;;;;7.85;2.55;;;;;;;14.73;100.00;101331.56;5267291;28;20028;-74
2023/08/07 02:06:38;;;;;;;9.38;2.83;;;;;;;14.74;100.00;101325.31;5264848;28;20067;-74
2023/08/07 02:09:10;;;;;;;8.32;2.42;;;;;;;14.75;100.00;101328.78;5269169;28;20036;-74
2023/08/07 02:11:42;;;;;;;7.40;2.10;;;;;;;14.70;100.00;101329.22;5265635;28;20349;-74
2023/08/07 02:14:13;;;;;;;5.90;2.30;;;;;;;14.76;100.00;101333.91;5259678;28;20474;-74
2023/08/07 02:16:45;;;;;;;11.68;2.78;;;;;;;14.75;100.00;101321.72;5265374;28;20306;-74
2023/08/07 02:19:16;;;;;;;9.13;2.42;;;;;;;14.77;100.00;101327.69;5263511;28;20029;-74
2023/08/07 02:21:47;;;;;;;6.63;2.53;;;;;;;14.77;100.00;101337.38;5261558;28;20045;-74
2023/08/07 02:24:19;;;;;;;6.70;2.47;;;;;;;14.78;100.00;101334.63;5269155;28;20036;-74
2023/08/07 02:26:51;;;;;;;8.95;2.88;;;;;;;14.78;100.00;101337.25;5265110;28;20111;-74
2023/08/07 02:29:22;;;;;;;8.05;2.53;;;;;;;14.76;100.00;101333.91;5261217;28;20074;-74
2023/08/07 02:31:53;;;;;;;6.80;2.30;;;;;;;14.78;100.00;101329.34;5266932;28;20051;-74
2023/08/07 02:34:24;;;;;;;8.82;3.45;;;;;;;14.75;100.00;101321.72;5261685;28;20052;-74
2023/08/07 02:36:56;;;;;;;9.68;3.00;;;;;;;14.71;100.00;101320.34;5267405;28;20063;-74
2023/08/07 02:39:27;;;;;;;8.88;3.28;;;;;;;14.72;100.00;101319.34;5258924;28;20028;-74
2023/08/07 02:41:59;;;;;;;10.02;2.88;;;;;;;14.72;100.00;101316.72;5259303;28;20482;-74
2023/08/07 02:44:30;;;;;;;7.57;3.10;;;;;;;14.74;100.00;101325.31;5256929;28;20063;-74
2023/08/07 02:47:01;;;;;;;7.00;2.53;;;;;;;14.68;100.00;101310.06;5261175;28;20374;-74
2023/08/07 02:49:32;;;;;;;10.65;3.55;;;;;;;14.76;100.00;101323.38;5266564;28;20024;-74
2023/08/07 02:52:04;;;;;;;8.40;3.13;;;;;;;14.77;100.00;101319.78;5263580;28;20389;-74
2023/08/07 02:54:35;;;;;;;9.13;2.83;;;;;;;14.77;100.00;101318.91;5262060;28;20029;-74
2023/08/07 02:57:06;;;;;;;7.40;2.40;;;;;;;14.78;100.00;101316.16;5266398;28;20178;-74
2023/08/07 02:59:38;;;;;;;9.65;2.80;;;;;;;14.79;100.00;101320.44;5264395;28;20041;-74
2023/08/07 03:02:09;;;;;;;10.90;3.10;;;;;;;14.72;100.00;101298.25;5259463;28;20074;-74
2023/08/07 03:04:40;;;;;;;8.15;2.92;;;;;;;14.89;100.00;101315.13;5266520;28;20032;-74
2023/08/07 03:07:11;;;;;;;6.93;2.58;;;;;;;14.85;100.00;101313.75;5267587;28;20039;-74
2023/08/07 03:09:47;;;;;;;5.72;2.40;;;;;;;14.92;100.00;101324.53;5260118;28;20462;-74
2023/08/07 03:12:18;;;;;;;8.68;3.00;;;;;;;14.84;100.00;101325.28;5261893;28;20443;-74
2023/08/07 03:14:50;;;;;;;9.25;2.97;;;;;;;14.85;100.00;101316.41;5263850;28;20086;-74
2023/08/07 03:17:21;;;;;;;6.93;2.72;;;;;;;14.81;100.00;101322.91;5262416;28;20032;-74
2023/08/07 03:19:52;;;;;;;10.57;2.80;;;;;;;14.87;100.00;101332.91;5264434;28;20646;-74
2023/08/07 03:22:23;;;;;;;9.27;2.92;;;;;;;14.93;100.00;101323.59;5265887;28;20523;-74
2023/08/07 03:24:55;;;;;;;6.50;2.75;;;;;;;14.88;100.00;101331.09;5262118;28;20051;-74
2023/08/07 03:27:26;;;;;;;6.57;2.67;;;;;;;14.83;100.00;101305.16;5258618;28;20036;-74
2023/08/07 03:29:57;;;;;;;8.82;2.70;;;;;;;14.88;100.00;101312.63;5266184;28;20505;-74
2023/08/07 03:32:28;;;;;;;10.45;3.25;;;;;;;14.81;100.00;101294.75;5256414;28;20109;-74
2023/08/07 03:35:00;;;;;;;10.70;3.15;;;;;;;14.87;100.00;101303.88;5257663;28;20041;-74
2023/08/07 03:37:31;;;;;;;7.65;3.15;;;;;;;14.85;100.00;101305.84;5258767;28;20029;-74
2023/08/07 03:40:03;;;;;;;9.57;3.08;;;;;;;14.78;100.00;101295.03;5260005;28;20028;-73
2023/08/07 03:42:34;;;;;;;12.80;3.25;;;;;;;14.82;100.00;101306.13;5261704;28;20056;-74
2023/08/07 03:45:06;;;;;;;12.30;3.58;;;;;;;14.84;100.00;101305.00;5254947;28;20064;-74
2023/08/07 03:47:37;;;;;;;11.77;3.70;;;;;;;14.51;100.00;101260.75;5260512;28;20025;-74
2023/08/07 03:50:08;;;;;;;9.85;3.35;;;;;;;14.91;100.00;101307.06;5262933;28;20047;-74
2023/08/07 03:52:40;;;;;;;12.77;3.83;;;;;;;14.89;100.00;101303.72;5257074;28;20033;-74
2023/08/07 03:55:11;;;;;;;7.85;3.20;;;;;;;14.89;100.00;101311.63;5264494;28;20039;-74
2023/08/07 03:57:42;;;;;;;11.90;3.47;;;;;;;14.90;100.00;101313.31;5259466;28;20065;-73
2023/08/07 04:00:14;;;;;;;10.60;3.00;;;;;;;14.85;100.00;101305.84;5256923;28;20040;-74
2023/08/07 04:02:45;;;;;;;9.05;2.50;;;;;;;14.92;100.00;101314.81;5262535;28;20051;-74
2023/08/07 04:05:16;;;;;;;7.50;2.80;;;;;;;14.96;100.00;101323.25;5263450;28;20116;-74
2023/08/07 04:07:48;;;;;;;11.05;3.65;;;;;;;14.96;100.00;101325.91;5264128;28;20334;-74
2023/08/07 04:10:19;;;;;;;10.40;3.92;;;;;;;14.97;100.00;101330.22;5263043;28;20040;-74
2023/08/07 04:12:50;;;;;;;10.45;4.32;;;;;;;14.94;100.00;101327.88;5264360;28;20032;-74
2023/08/07 04:15:21;;;;;;;7.93;3.15;;;;;;;14.98;100.00;101323.97;5262052;28;20029;-74
2023/08/07 04:17:53;;;;;;;10.85;3.42;;;;;;;15.00;100.00;101322.84;5258497;28;20029;-74
2023/08/07 04:20:24;;;;;;;7.80;2.80;;;;;;;14.97;100.00;101317.03;5262050;28;20025;-74
2023/08/07 04:22:55;;;;;;;10.93;3.63;;;;;;;14.93;100.00;101328.84;5260016;28;20589;-74
2023/08/07 04:25:27;;;;;;;10.27;3.10;;;;;;;14.93;100.00;101334.97;5259893;28;20082;-74
2023/08/07 04:27:58;;;;;;;15.80;3.83;;;;;;;14.96;100.00;101333.81;5260012;28;20394;-74
2023/08/07 04:30:29;;;;;;;6.72;2.92;;;;;;;14.89;100.00;101332.75;5264486;28;20413;-74
2023/08/07 04:33:00;;;;;;;10.00;3.13;;;;;;;14.90;100.00;101326.50;5261746;28;20496;-74
2023/08/07 04:35:32;;;;;;;11.57;3.33;;;;;;;14.89;100.00;101332.75;5252162;28;21157;-74
2023/08/07 04:38:03;;;;;;;11.77;3.10;;;;;;;14.83;100.00;101334.16;5259071;28;20564;-74
2023/08/07 04:40:34;;;;;;;8.13;3.20;;;;;;;14.85;100.00;101340.16;5264246;28;20040;-74
2023/08/07 04:43:05;;;;;;;11.40;3.30;;;;;;;14.79;100.00;101346.81;5258064;28;20025;-74
2023/08/07 04:45:39;;;;;;;9.88;3.00;;;;;;;14.86;100.00;101348.88;5257551;28;20470;-74
2023/08/07 04:48:11;;;;;;;6.93;2.60;;;;;;;14.83;100.00;101347.34;5261774;28;20025;-74
2023/08/07 04:50:42;;;;;;;10.60;3.25;;;;;;;14.81;100.00;101344.88;5261069;28;20378;-74
2023/08/07 04:53:14;;;;;;;11.98;3.83;;;;;;;14.81;100.00;101341.38;5255465;28;20032;-74
2023/08/07 04:55:46;;;;;;;9.13;3.20;;;;;;;14.80;100.00;101335.28;5257092;28;20032;-74
2023/08/07 04:58:17;;;;;;;6.03;2.40;;;;;;;14.85;100.00;101345.41;5263476;28;20024;-74
2023/08/07 05:00:55;;;;;;;7.40;2.88;;;;;;;15.02;100.00;101346.44;5257172;28;20063;-74
2023/08/07 05:03:30;;;;;;;7.28;2.90;;;;;;;14.90;100.00;101348.44;5261282;28;20032;-74
2023/08/07 05:06:01;;;;;;;8.43;2.85;;;;;;;14.92;100.00;101345.66;5261513;28;20089;-74
2023/08/07 05:08:33;;;;;;;10.25;3.15;;;;;;;14.91;100.00;101350.09;5262809;28;20033;-74
2023/08/07 05:11:04;;;;;;;6.78;2.75;;;;;;;14.91;100.00;101346.63;5260453;28;20435;-71
2023/08/07 05:13:35;;;;;;;5.95;2.20;;;;;;;14.95;100.00;101355.91;5265883;28;20043;-71
2023/08/07 05:16:07;;;;;;;7.13;2.65;;;;;;;14.93;100.00;101356.06;5259529;28;20029;-71
2023/08/07 05:18:38;;;;;;;7.35;2.78;;;;;;;14.93;100.00;101356.06;5262623;28;20482;-71
2023/08/07 05:21:09;;;;;;;8.65;2.67;;;;;;;14.87;100.00;101366.38;5260368;28;20025;-71
2023/08/07 05:23:41;;;;;;;6.82;2.55;;;;;;;14.90;100.00;101369.53;5267687;28;20029;-71
2023/08/07 05:26:12;;;;;;;7.55;2.58;;;;;;;14.88;100.00;101368.03;5257851;28;20486;-71
2023/08/07 05:28:43;;;;;;;9.93;2.85;;;;;;;14.91;100.00;101365.91;5259658;28;20027;-71
2023/08/07 05:31:14;;;;;;;8.35;3.05;;;;;;;14.90;100.00;101368.72;5261259;28;20025;-71
2023/08/07 05:33:46;;;;;;;5.63;2.17;;;;;;;14.91;100.00;101373.00;5247038;28;20032;-71
2023/08/07 05:36:17;;;;;;;8.00;2.70;;;;;;;14.92;100.00;101372.84;5256478;28;20024;-71
2023/08/07 05:38:48;;;;;;;9.77;2.78;;;;;;;14.92;100.00;101374.66;5263178;28;20029;-71
2023/08/07 05:41:19;;;;;;;6.68;2.80;;;;;;;14.90;100.00;101381.91;5261904;28;20043;-71
2023/08/07 05:43:50;;;;;;;7.85;2.70;;;;;;;14.90;100.00;101380.09;5262463;28;20058;-71
2023/08/07 05:46:22;;;;;;;9.18;3.35;;;;;;;14.96;100.00;101386.59;5260559;28;20078;-71
2023/08/07 05:48:53;;;;;;;9.93;2.92;;;;;;;14.96;100.00;101389.22;5259832;28;20025;-71
2023/08/07 05:51:24;;;;;;;9.65;2.63;;;;;;;15.00;100.00;101399.38;5257642;28;21494;-71
2023/08/07 05:53:56;;;;;;;8.85;2.70;;;;;;;15.00;100.00;101404.66;5258351;28;20035;-71
2023/08/07 05:56:27;;;;;;;9.60;2.42;;;;;;;15.02;100.00;101407.13;5258230;28;20474;-71
2023/08/07 05:58:58;;;;;;;6.10;2.53;;;;;;;15.02;100.00;101404.50;5264673;28;20174;-70
2023/08/07 06:01:33;;;;;;;5.82;2.22;;;;;;;15.03;100.00;101406.13;5256142;28;20040;-71
2023/08/07 06:04:04;;;;;;;9.70;2.75;;;;;;;15.03;100.00;101404.34;5261584;28;20493;-71
2023/08/07 06:06:35;;;;;;;11.15;2.50;;;;;;;15.01;100.00;101395.75;5269257;28;20044;-71
2023/08/07 06:09:07;;;;;;;10.55;2.80;;;;;;;15.05;100.00;101402.38;5264332;28;20017;-71
2023/08/07 06:11:38;;;;;;;9.85;3.15;;;;;;;15.13;100.00;101404.31;5270007;28;20031;-71
2023/08/07 06:14:09;;;;;;;9.10;2.55;;;;;;;15.11;100.00;101410.69;5264569;28;20374;-71
2023/08/07 06:16:41;;;;;;;10.57;2.40;;;;;;;15.17;100.00;101410.13;5259546;28;20044;-71
2023/08/07 06:19:12;;;;;;;8.50;2.90;;;;;;;15.19;100.00;101406.38;5263435;28;20025;-71
2023/08/07 06:21:43;;;;;;;7.68;2.33;;;;;;;15.26;100.00;101411.88;5263478;28;20127;-71
2023/08/07 06:24:14;;;;;;;9.27;3.08;;;;;;;15.37;100.00;101416.94;5262538;28;20040;-71
2023/08/07 06:26:46;;;;;;;11.90;3.13;;;;;;;15.45;100.00;101409.13;5260157;28;20107;-71
2023/08/07 06:29:17;;;;;;;10.40;3.38;;;;;;;15.54;100.00;101426.72;5264156;28;20032;-71
2023/08/07 06:31:48;;;;;;;6.93;2.33;;;;;;;15.46;100.00;101410.81;5263807;28;20025;-71
2023/08/07 06:34:20;;;;;;;6.50;2.35;;;;;;;15.63;100.00;101430.28;5260134;28;20056;-71
2023/08/07 06:36:51;;;;;;;10.38;2.53;;;;;;;15.65;100.00;101435.44;5259806;28;20033;-71
2023/08/07 06:39:22;;;;;;;7.28;2.45;;;;;;;15.70;100.00;101439.31;5260033;28;20028;-70
2023/08/07 06:41:53;;;;;;;8.15;2.22;;;;;;;15.73;100.00;101444.31;5262741;28;20107;-71
2023/08/07 06:44:25;;;;;;;8.23;2.58;;;;;;;15.78;100.00;101439.41;5265799;28;20025;-73
2023/08/07 06:46:56;;;;;;;10.10;2.67;;;;;;;15.82;100.00;101448.69;5259972;28;20504;-73
2023/08/07 06:49:27;;;;;;;11.60;2.65;;;;;;;15.89;100.00;101435.72;5259721;28;20031;-73
2023/08/07 06:51:58;;;;;;;7.50;2.35;;;;;;;15.96;100.00;101447.34;5257142;28;20087;-73
2023/08/07 06:54:30;;;;;;;8.63;2.28;;;;;;;16.01;100.00;101444.25;5258530;28;20040;-72
2023/08/07 06:57:01;;;;;;;7.10;2.70;;;;;;;16.08;100.00;101441.84;5264813;28;20027;-72
2023/08/07 06:59:32;;;;;;;8.63;2.30;;;;;;;16.15;100.00;101443.72;5268717;28;20145;-73
2023/08/07 07:02:04;;;;;;;9.93;2.60;;;;;;;16.22;100.00;101439.47;5268049;28;20077;-72
2023/08/07 07:04:36;;;;;;;8.98;2.75;;;;;;;16.34;100.00;101445.38;5263811;28;20370;-72
2023/08/07 07:07:07;;;;;;;8.50;2.20;;;;;;;16.35;100.00;101449.66;5259573;28;20020;-72
2023/08/07 07:09:38;;;;;;;6.18;1.95;;;;;;;16.27;100.00;101449.59;5261308;28;20473;-72
2023/08/07 07:12:10;;;;;;;7.22;2.13;;;;;;;16.44;100.00;101448.75;5257697;28;20025;-72
2023/08/07 07:14:41;;;;;;;9.40;2.05;;;;;;;16.57;100.00;101451.00;5257766;28;20090;-72
2023/08/07 07:17:12;;;;;;;7.25;2.22;;;;;;;16.86;100.00;101453.38;5263976;28;20039;-73
2023/08/07 07:19:43;;;;;;;7.32;2.20;;;;;;;16.73;100.00;101461.72;5261841;28;20056;-73
2023/08/07 07:22:15;;;;;;;6.10;2.03;;;;;;;16.76;100.00;101464.06;5267110;28;20032;-72
2023/08/07 07:24:46;;;;;;;7.30;2.30;;;;;;;16.71;100.00;101473.41;5259698;28;20406;-72
2023/08/07 07:27:17;;;;;;;8.60;2.70;;;;;;;16.76;100.00;101472.00;5263658;28;20063;-72
2023/08/07 07:29:49;;;;;;;9.05;2.00;;;;;;;16.70;100.00;101464.63;5263932;28;20036;-73
2023/08/07 07:32:20;;;;;;;9.75;2.13;;;;;;;16.77;100.00;101464.88;5255446;28;20028;-73
2023/08/07 07:34:51;;;;;;;11.65;2.53;;;;;;;16.76;100.00;101473.81;5256477;28;20032;-72
2023/08/07 07:37:23;;;;;;;6.85;2.28;;;;;;;16.84;100.00;101481.78;5261612;28;20028;-73
2023/08/07 07:39:54;;;;;;;9.80;2.25;;;;;;;16.88;100.00;101483.16;5258231;28;20068;-73
2023/08/07 07:42:25;;;;;;;7.25;2.20;;;;;;;16.96;100.00;101477.06;5259308;28;20571;-73
2023/08/07 07:44:57;;;;;;;12.57;2.65;;;;;;;17.06;100.00;101484.91;5259389;28;20025;-73
2023/08/07 07:47:28;;;;;;;6.43;2.10;;;;;;;17.15;100.00;101484.78;5257773;28;20410;-73
2023/08/07 07:50:08;;;;;;;8.27;1.92;;;;;;;17.24;100.00;101494.44;5261751;28;20550;-73
2023/08/07 07:52:39;;;;;;;6.32;2.00;;;;;;;17.06;100.00;101492.84;5260875;28;20077;-73
2023/08/07 07:55:12;;;;;;;7.15;2.00;;;;;;;17.04;100.00;101498.28;5260802;28;20112;-73
2023/08/07 07:57:43;;;;;;;10.70;2.40;;;;;;;17.06;100.00;101504.28;5242762;28;20038;-73
2023/08/07 08:00:15;;;;;;;8.75;2.03;;;;;;;17.03;100.00;101494.81;5261436;28;20972;-73
2023/08/07 08:02:46;;;;;;;8.32;2.50;;;;;;;17.11;100.00;101504.63;5260625;28;20491;-73
2023/08/07 08:05:17;;;;;;;7.38;1.90;;;;;;;17.16;100.00;101505.00;5263895;28;20070;-73
2023/08/07 08:07:49;;;;;;;7.78;2.40;;;;;;;17.08;100.00;101518.16;5260361;28;20473;-73
2023/08/07 08:10:21;;;;;;;8.82;1.90;;;;;;;17.23;100.00;101508.66;5260245;28;20024;-72
2023/08/07 08:12:55;;;;;;;8.65;2.38;;;;;;;17.44;100.00;101512.75;5256325;28;20368;-72
2023/08/07 08:15:26;;;;;;;4.55;1.90;;;;;;;17.65;100.00;101515.84;5259241;28;20040;-72
2023/08/07 08:17:57;;;;;;;9.25;2.40;;;;;;;17.79;100.00;101517.03;5260715;28;20029;-72
2023/08/07 08:20:31;;;;;;;7.82;2.00;;;;;;;17.96;100.00;101507.34;5259880;28;20020;-72
2023/08/07 08:23:02;;;;;;;;;;;;;;;18.71;100.00;101510.75;5243730;28;20063;-72
2023/08/07 08:25:33;;;;;;;6.90;1.70;;;;;;;18.29;100.00;101516.16;5258719;28;20405;-73
2023/08/07 08:28:05;;;;;;;8.63;2.15;;;;;;;18.38;100.00;101514.38;5259067;28;20032;-73
2023/08/07 08:30:36;;;;;;;6.43;1.88;;;;;;;18.41;100.00;101521.97;5261930;28;20023;-73
2023/08/07 08:33:11;;;;;;;6.40;2.00;;;;;;;18.19;100.00;101526.94;5254429;28;20410;-73
2023/08/07 08:35:42;;;;;;;7.75;1.88;;;;;;;18.17;100.00;101528.91;5261769;28;20031;-73
2023/08/07 08:38:13;;;;;;;7.68;1.70;;;;;;;18.39;100.00;101526.63;5261218;28;20021;-73
2023/08/07 08:40:46;;;;;;;9.65;1.95;;;;;;;18.46;100.00;101528.44;5261439;28;20024;-73
2023/08/07 08:43:18;;;;;;;8.48;1.98;;;;;;;18.58;100.00;101526.28;5261567;28;20036;-73
2023/08/07 08:45:50;;;;;;;3.92;1.45;;;;;;;18.61;100.00;101533.94;5257749;28;20028;-73
2023/08/07 08:48:23;;;;;;;4.63;1.85;;;;;;;18.53;100.00;101533.94;5258673;28;20122;-73
2023/08/07 08:50:55;;;;;;;6.90;1.52;;;;;;;18.45;100.00;101537.41;5258062;28;20028;-73
2023/08/07 08:53:27;;;;;;;7.88;1.70;;;;;;;18.33;100.00;101536.06;5258071;28;20493;-73
2023/08/07 08:56:00;;;;;;;4.75;1.55;;;;;;;18.22;100.00;101537.22;5263010;28;20025;-73
2023/08/07 08:58:32;;;;;;;6.28;2.08;;;;;;;18.41;100.00;101540.53;5260313;28;20031;-73
2023/08/07 09:01:04;;;;;;;5.00;1.58;;;;;;;18.65;100.00;101547.69;5259985;28;20028;-73
2023/08/07 09:03:36;;;;;;;6.97;1.70;;;;;;;18.86;100.00;101541.91;5257159;28;21518;-73
2023/08/07 09:06:09;;;;;;;7.47;1.70;;;;;;;19.05;100.00;101536.22;5259744;28;20028;-73
2023/08/07 09:08:41;;;;;;;;;;;;;;;19.69;100.00;101546.88;5258339;28;20085;-73
2023/08/07 09:11:14;;;;;;;6.68;1.73;;;;;;;19.32;100.00;101544.81;5258592;28;19909;-73
2023/08/07 09:13:48;;;;;;;5.18;1.70;;;;;;;19.64;100.00;101544.72;5260680;28;20029;-73
2023/08/07 09:16:21;;;;;;;6.10;1.80;;;;;;;19.64;100.00;101549.22;5260292;28;20029;-73
2023/08/07 09:18:54;;;;;;;5.28;2.20;;;;;;;19.57;100.00;101548.22;5258847;28;20020;-74
2023/08/07 09:21:25;;;;;;;6.60;1.52;;;;;;;19.33;100.00;101565.91;5256436;28;20043;-73
2023/08/07 09:23:57;;;;;;;4.95;1.77;;;;;;;19.42;100.00;101564.03;5260264;28;20464;-73
2023/08/07 09:26:28;;;;;;;4.97;1.67;;;;;;;19.58;100.00;101558.66;5258748;28;20021;-73
2023/08/07 09:28:59;;;;;;;3.58;1.65;;;;;;;19.85;100.00;101552.13;5260127;28;20032;-73
2023/08/07 09:31:31;;;;;;;5.97;1.63;;;;;;;19.90;100.00;101560.41;5254131;28;20029;-73
2023/08/07 09:34:04;;;;;;;6.25;1.90;;;;;;;19.97;100.00;101565.88;5254066;28;20063;-73
2023/08/07 09:36:35;;;;;;;3.35;1.52;;;;;;;19.77;100.00;101559.28;5261694;28;20561;-73
2023/08/07 09:39:07;;;;;;;8.50;2.28;;;;;;;19.86;100.00;101561.75;5253091;28;20028;-73
2023/08/07 09:41:38;;;;;;;7.70;1.60;;;;;;;20.03;100.00;101556.34;5259419;28;20106;-73
2023/08/07 09:44:13;;;;;;;5.27;1.67;;;;;;;20.05;100.00;101557.00;5255577;28;20025;-74
2023/08/07 09:46:45;;;;;;;6.22;2.00;;;;;;;20.06;100.00;101563.97;5262283;28;20489;-73
2023/08/07 09:49:16;;;;;;;7.60;1.90;;;;;;;20.07;100.00;101571.78;5260460;28;20025;-73
2023/08/07 09:51:47;;;;;;;13.33;2.13;;;;;;;20.05;100.00;101567.66;5264018;28;20028;-73
2023/08/07 09:54:18;;;;;;;4.43;1.50;;;;;;;20.34;100.00;101574.94;5259724;28;20036;-73
2023/08/07 09:56:54;;;;;;;6.77;1.60;;;;;;;20.37;100.00;101585.25;5257571;28;20033;-73
2023/08/07 09:59:27;;;;;;;5.03;1.63;;;;;;;20.34;100.00;101583.78;5264555;28;20049;-73
2023/08/07 10:01:59;;;;;;;4.50;1.70;;;;;;;20.44;100.00;101580.88;5255711;28;20189;-73
2023/08/07 10:04:31;;;;;;;9.15;1.70;;;;;;;20.55;97.27;101575.16;5262815;28;20540;-74
2023/08/07 10:07:03;;;;;;;5.90;2.00;;;;;;;20.85;100.00;101580.59;5250466;28;20046;-74
2023/08/07 10:09:34;;;;;;;4.30;1.37;;;;;;;20.76;92.70;101584.31;5261694;28;20024;-75
2023/08/07 10:12:09;;;;;;;7.47;2.07;;;;;;;20.75;96.37;101586.16;5259470;28;20186;-79
2023/08/07 10:14:42;;;;;;;5.38;1.95;;;;;;;20.38;84.33;101601.06;5250844;28;20655;-75
2023/08/07 10:17:13;;;;;;;5.95;1.60;;;;;;;20.36;85.58;101597.72;5258818;28;20036;-75
2023/08/07 10:19:45;;;;;;;4.43;1.70;;;;;;;20.49;85.98;101597.16;5262515;28;20436;-75
2023/08/07 10:22:18;;;;;;;4.93;1.80;;;;;;;20.48;71.97;101611.44;5259617;28;20020;-75
2023/08/07 10:24:50;;;;;;;4.32;1.70;;;;;;;20.40;73.54;101598.19;5259296;28;20031;-77
2023/08/07 10:27:23;;;;;;;5.90;1.70;;;;;;;20.72;72.44;101597.19;5256562;28;20184;-76
2023/08/07 10:29:58;;;;;;;6.85;1.80;;;;;;;20.86;67.14;101606.22;5258494;28;20052;-74
2023/08/07 10:32:30;;;;;;;3.33;1.63;;;;;;;20.71;68.00;101603.50;5256966;28;20024;-77
2023/08/07 10:35:05;;;;;;;5.00;1.40;;;;;;;20.90;75.96;101591.53;5250119;28;20037;-77
2023/08/07 10:37:37;;;;;;;4.47;1.77;;;;;;;20.76;70.85;101602.94;5264732;28;20033;-76
2023/08/07 10:40:10;;;;;;;4.43;1.60;;;;;;;20.68;72.08;101595.03;5260864;28;20131;-75
2023/08/07 10:43:12;;;;;;;5.72;1.70;;;;;;;21.02;72.82;101610.56;5256061;28;20436;-74
2023/08/07 10:45:43;;;;;;;5.28;1.70;;;;;;;20.68;66.74;101608.34;5255293;28;20035;-74
2023/08/07 10:48:18;;;;;;;4.67;1.87;;;;;;;20.82;68.85;101615.56;5260283;28;20036;-75
2023/08/07 10:50:57;;;;;;;6.00;1.70;;;;;;;20.85;63.97;101621.38;5259006;28;20396;-75
2023/08/07 10:53:44;;;;;;;4.55;1.67;;;;;;;20.99;65.42;101617.09;5257186;28;20475;-75
2023/08/07 10:56:17;;;;;;;4.53;1.73;;;;;;;21.14;73.42;101623.28;5260260;28;20054;-74
2023/08/07 10:58:52;;;;;;;5.07;1.85;;;;;;;21.31;64.85;101609.81;5259866;28;20024;-77
2023/08/07 11:01:29;;;;;;;4.20;1.67;;;;;;;21.25;62.58;101619.38;5252644;28;20051;-75
2023/08/07 11:04:09;;;;;;;4.22;1.48;;;;;;;21.16;64.31;101619.63;5257948;28;20036;-74
2023/08/07 11:06:41;;;;;;;4.65;1.67;;;;;;;20.90;60.15;101624.31;5257535;28;20489;-75
2023/08/07 11:09:13;;;;;;;;;;;;;;;21.65;62.07;101614.63;5254765;28;20107;-76
2023/08/07 11:11:48;;;;;;;5.97;1.63;;;;;;;21.17;67.00;101610.59;5252468;28;20199;-75
2023/08/07 11:14:20;;;;;;;3.92;1.98;;;;;;;21.32;64.03;101616.78;5258201;28;20026;-76
2023/08/07 11:16:52;;;;;;;4.50;1.57;;;;;;;21.54;64.42;101615.91;5265033;28;20021;-74
2023/08/07 11:19:24;;;;;;;3.38;1.50;;;;;;;21.36;66.12;101618.09;5256710;28;20021;-76
2023/08/07 11:21:57;;;;;;;4.43;1.75;;;;;;;21.19;63.62;101620.09;5251171;28;20040;-76
2023/08/07 11:24:28;;;;;;;;;;;;;;;21.85;62.36;101615.72;5257511;28;20037;-74
2023/08/07 11:26:59;;;;;;;5.57;1.98;;;;;;;21.05;67.32;101615.53;5260136;28;19950;-75
2023/08/07 11:29:32;;;;;;;4.87;1.90;;;;;;;21.46;71.27;101624.00;5258754;28;20335;-74
2023/08/07 11:32:05;;;;;;;5.22;1.55;;;;;;;21.52;67.44;101617.13;5254352;28;20032;-75
2023/08/07 11:34:36;;;;;;;6.20;1.95;;;;;;;21.62;65.40;101613.16;5254736;28;20028;-75
2023/08/07 11:37:15;;;;;;;5.53;2.10;;;;;;;22.02;69.20;101612.84;5257154;28;20040;-75
2023/08/07 11:39:46;;;;;;;3.67;1.60;;;;;;;21.75;67.84;101611.69;5261404;28;20021;-74